sensor_id;sensor_type;location;lat;lon;timestamp;P1;durP1;ratioP1;P2;durP2;ratioP2
15958;SDS011;8078;47.822;9.402;2023-02-10T00:00:23;48.27;;;23.23;;
15958;SDS011;8078;47.822;9.402;2023-02-10T00:02:49;47.43;;;23.80;;
15958;SDS011;8078;47.822;9.402;2023-02-10T00:05:15;51.77;;;24.60;;
15958;SDS011;8078;47.822;9.402;2023-02-10T00:07:40;43.53;;;22.40;;
15958;SDS011;8078;47.822;9.402;2023-02-10T00:10:06;43.47;;;22.67;;
15958;SDS011;8078;47.822;9.402;2023-02-10T00:12:34;43.90;;;22.73;;
15958;SDS011;8078;47.822;9.402;2023-02-10T00:15:01;45.93;;;23.63;;
15958;SDS011;8078;47.822;9.402;2023-02-10T00:17:26;45.83;;;23.97;;
15958;SDS011;8078;47.822;9.402;2023-02-10T00:19:52;44.87;;;24.23;;
15958;SDS011;8078;47.822;9.402;2023-02-10T00:22:17;46.97;;;24.83;;
15958;SDS011;8078;47.822;9.402;2023-02-10T00:24:43;46.20;;;24.10;;
15958;SDS011;8078;47.822;9.402;2023-02-10T00:27:08;46.33;;;24.63;;
15958;SDS011;8078;47.822;9.402;2023-02-10T00:29:34;46.87;;;24.73;;
15958;SDS011;8078;47.822;9.402;2023-02-10T00:31:59;46.17;;;24.13;;
15958;SDS011;8078;47.822;9.402;2023-02-10T00:34:25;45.57;;;24.70;;
15958;SDS011;8078;47.822;9.402;2023-02-10T00:36:52;43.30;;;22.87;;
15958;SDS011;8078;47.822;9.402;2023-02-10T00:39:18;43.03;;;23.53;;
15958;SDS011;8078;47.822;9.402;2023-02-10T00:41:44;47.17;;;23.40;;
15958;SDS011;8078;47.822;9.402;2023-02-10T00:44:09;47.40;;;24.17;;
15958;SDS011;8078;47.822;9.402;2023-02-10T00:46:35;50.23;;;25.83;;
15958;SDS011;8078;47.822;9.402;2023-02-10T00:49:01;52.10;;;25.30;;
15958;SDS011;8078;47.822;9.402;2023-02-10T00:51:26;49.53;;;26.13;;
15958;SDS011;8078;47.822;9.402;2023-02-10T00:53:52;52.50;;;25.97;;
15958;SDS011;8078;47.822;9.402;2023-02-10T00:56:18;51.23;;;25.10;;
15958;SDS011;8078;47.822;9.402;2023-02-10T00:58:45;51.40;;;24.03;;
15958;SDS011;8078;47.822;9.402;2023-02-10T01:01:11;49.80;;;25.13;;
15958;SDS011;8078;47.822;9.402;2023-02-10T01:03:38;52.40;;;25.60;;
15958;SDS011;8078;47.822;9.402;2023-02-10T01:06:04;51.77;;;24.53;;
15958;SDS011;8078;47.822;9.402;2023-02-10T01:08:30;47.50;;;24.07;;
15958;SDS011;8078;47.822;9.402;2023-02-10T01:11:06;51.40;;;24.93;;
15958;SDS011;8078;47.822;9.402;2023-02-10T01:13:35;47.10;;;24.83;;
15958;SDS011;8078;47.822;9.402;2023-02-10T01:16:05;45.40;;;25.10;;
15958;SDS011;8078;47.822;9.402;2023-02-10T01:18:34;53.33;;;26.97;;
15958;SDS011;8078;47.822;9.402;2023-02-10T01:21:05;49.50;;;27.27;;
15958;SDS011;8078;47.822;9.402;2023-02-10T01:23:35;56.67;;;25.43;;
15958;SDS011;8078;47.822;9.402;2023-02-10T01:26:01;48.53;;;24.23;;
15958;SDS011;8078;47.822;9.402;2023-02-10T01:28:27;43.90;;;23.30;;
15958;SDS011;8078;47.822;9.402;2023-02-10T01:30:52;47.83;;;23.10;;
15958;SDS011;8078;47.822;9.402;2023-02-10T01:33:18;42.17;;;24.33;;
15958;SDS011;8078;47.822;9.402;2023-02-10T01:35:43;48.63;;;25.07;;
15958;SDS011;8078;47.822;9.402;2023-02-10T01:38:09;48.10;;;24.40;;
15958;SDS011;8078;47.822;9.402;2023-02-10T01:40:34;50.93;;;22.67;;
15958;SDS011;8078;47.822;9.402;2023-02-10T01:43:00;46.93;;;23.17;;
15958;SDS011;8078;47.822;9.402;2023-02-10T01:45:33;43.70;;;22.50;;
15958;SDS011;8078;47.822;9.402;2023-02-10T01:48:00;45.60;;;22.77;;
15958;SDS011;8078;47.822;9.402;2023-02-10T01:50:30;43.83;;;23.43;;
15958;SDS011;8078;47.822;9.402;2023-02-10T01:53:01;45.33;;;24.27;;
15958;SDS011;8078;47.822;9.402;2023-02-10T01:55:31;47.63;;;23.70;;
15958;SDS011;8078;47.822;9.402;2023-02-10T01:58:02;47.27;;;23.67;;
15958;SDS011;8078;47.822;9.402;2023-02-10T02:00:30;48.53;;;23.50;;
15958;SDS011;8078;47.822;9.402;2023-02-10T02:02:55;47.07;;;23.87;;
15958;SDS011;8078;47.822;9.402;2023-02-10T02:05:31;45.47;;;22.80;;
15958;SDS011;8078;47.822;9.402;2023-02-10T02:08:04;48.37;;;24.53;;
15958;SDS011;8078;47.822;9.402;2023-02-10T02:10:50;47.50;;;24.40;;
15958;SDS011;8078;47.822;9.402;2023-02-10T02:16:05;48.10;;;25.83;;
15958;SDS011;8078;47.822;9.402;2023-02-10T02:21:56;52.17;;;24.07;;
15958;SDS011;8078;47.822;9.402;2023-02-10T02:33:31;54.23;;;25.13;;
15958;SDS011;8078;47.822;9.402;2023-02-10T02:36:06;53.53;;;25.07;;
15958;SDS011;8078;47.822;9.402;2023-02-10T02:38:40;51.80;;;25.30;;
15958;SDS011;8078;47.822;9.402;2023-02-10T02:41:06;51.00;;;25.17;;
15958;SDS011;8078;47.822;9.402;2023-02-10T02:43:33;54.17;;;24.67;;
15958;SDS011;8078;47.822;9.402;2023-02-10T02:46:02;52.10;;;25.13;;
15958;SDS011;8078;47.822;9.402;2023-02-10T02:48:41;57.20;;;26.70;;
15958;SDS011;8078;47.822;9.402;2023-02-10T02:51:35;52.50;;;25.20;;
15958;SDS011;8078;47.822;9.402;2023-02-10T02:59:53;51.40;;;26.13;;
15958;SDS011;8078;47.822;9.402;2023-02-10T03:02:29;56.70;;;26.77;;
15958;SDS011;8078;47.822;9.402;2023-02-10T03:04:58;60.17;;;28.60;;
15958;SDS011;8078;47.822;9.402;2023-02-10T03:07:24;48.90;;;25.13;;
15958;SDS011;8078;47.822;9.402;2023-02-10T03:09:50;54.77;;;26.27;;
15958;SDS011;8078;47.822;9.402;2023-02-10T03:12:15;51.50;;;26.30;;
15958;SDS011;8078;47.822;9.402;2023-02-10T03:14:41;50.77;;;24.87;;
15958;SDS011;8078;47.822;9.402;2023-02-10T03:17:06;51.67;;;23.77;;
15958;SDS011;8078;47.822;9.402;2023-02-10T03:19:32;50.47;;;26.30;;
15958;SDS011;8078;47.822;9.402;2023-02-10T03:21:58;60.07;;;26.03;;
15958;SDS011;8078;47.822;9.402;2023-02-10T03:24:23;50.70;;;26.80;;
15958;SDS011;8078;47.822;9.402;2023-02-10T03:26:49;48.20;;;24.90;;
15958;SDS011;8078;47.822;9.402;2023-02-10T03:29:15;54.17;;;27.67;;
15958;SDS011;8078;47.822;9.402;2023-02-10T03:31:40;53.13;;;27.03;;
15958;SDS011;8078;47.822;9.402;2023-02-10T03:34:06;50.10;;;26.17;;
15958;SDS011;8078;47.822;9.402;2023-02-10T03:36:32;50.17;;;26.47;;
15958;SDS011;8078;47.822;9.402;2023-02-10T03:38:58;56.87;;;26.73;;
15958;SDS011;8078;47.822;9.402;2023-02-10T03:41:24;54.57;;;29.07;;
15958;SDS011;8078;47.822;9.402;2023-02-10T03:43:50;55.67;;;26.83;;
15958;SDS011;8078;47.822;9.402;2023-02-10T03:46:15;59.73;;;28.37;;
15958;SDS011;8078;47.822;9.402;2023-02-10T03:48:41;54.43;;;27.03;;
15958;SDS011;8078;47.822;9.402;2023-02-10T03:51:07;51.70;;;25.50;;
15958;SDS011;8078;47.822;9.402;2023-02-10T03:53:33;56.80;;;28.13;;
15958;SDS011;8078;47.822;9.402;2023-02-10T03:55:59;48.63;;;26.60;;
15958;SDS011;8078;47.822;9.402;2023-02-10T03:58:25;54.37;;;27.30;;
15958;SDS011;8078;47.822;9.402;2023-02-10T04:00:51;55.53;;;27.57;;
15958;SDS011;8078;47.822;9.402;2023-02-10T04:03:16;54.70;;;27.00;;
15958;SDS011;8078;47.822;9.402;2023-02-10T04:05:42;59.13;;;27.73;;
15958;SDS011;8078;47.822;9.402;2023-02-10T04:08:08;53.43;;;25.97;;
15958;SDS011;8078;47.822;9.402;2023-02-10T04:10:33;54.63;;;26.40;;
15958;SDS011;8078;47.822;9.402;2023-02-10T04:12:59;53.27;;;26.70;;
15958;SDS011;8078;47.822;9.402;2023-02-10T04:15:25;55.67;;;27.37;;
15958;SDS011;8078;47.822;9.402;2023-02-10T04:17:50;54.70;;;28.70;;
15958;SDS011;8078;47.822;9.402;2023-02-10T04:20:16;56.70;;;29.10;;
15958;SDS011;8078;47.822;9.402;2023-02-10T04:22:42;60.33;;;30.07;;
15958;SDS011;8078;47.822;9.402;2023-02-10T04:25:08;59.67;;;28.13;;
15958;SDS011;8078;47.822;9.402;2023-02-10T04:27:33;66.63;;;30.33;;
15958;SDS011;8078;47.822;9.402;2023-02-10T04:29:59;64.80;;;29.57;;
15958;SDS011;8078;47.822;9.402;2023-02-10T04:32:25;63.57;;;30.70;;
15958;SDS011;8078;47.822;9.402;2023-02-10T04:34:50;75.63;;;32.53;;
15958;SDS011;8078;47.822;9.402;2023-02-10T04:37:16;67.47;;;32.97;;
15958;SDS011;8078;47.822;9.402;2023-02-10T04:39:42;69.70;;;33.03;;
15958;SDS011;8078;47.822;9.402;2023-02-10T04:42:07;65.03;;;31.80;;
15958;SDS011;8078;47.822;9.402;2023-02-10T04:44:33;73.50;;;33.20;;
15958;SDS011;8078;47.822;9.402;2023-02-10T04:46:59;77.73;;;33.10;;
15958;SDS011;8078;47.822;9.402;2023-02-10T04:49:24;68.27;;;31.63;;
15958;SDS011;8078;47.822;9.402;2023-02-10T04:51:50;64.60;;;31.00;;
15958;SDS011;8078;47.822;9.402;2023-02-10T04:54:16;66.83;;;31.40;;
15958;SDS011;8078;47.822;9.402;2023-02-10T04:56:42;66.93;;;32.33;;
15958;SDS011;8078;47.822;9.402;2023-02-10T04:59:07;71.20;;;31.27;;
15958;SDS011;8078;47.822;9.402;2023-02-10T05:01:33;60.87;;;29.53;;
15958;SDS011;8078;47.822;9.402;2023-02-10T05:03:59;64.00;;;31.87;;
15958;SDS011;8078;47.822;9.402;2023-02-10T05:06:24;65.23;;;31.77;;
15958;SDS011;8078;47.822;9.402;2023-02-10T05:08:50;73.83;;;33.17;;
15958;SDS011;8078;47.822;9.402;2023-02-10T05:11:16;71.53;;;34.73;;
15958;SDS011;8078;47.822;9.402;2023-02-10T05:13:42;76.10;;;34.67;;
15958;SDS011;8078;47.822;9.402;2023-02-10T05:16:08;79.20;;;36.87;;
15958;SDS011;8078;47.822;9.402;2023-02-10T05:18:35;75.57;;;36.70;;
15958;SDS011;8078;47.822;9.402;2023-02-10T05:21:02;79.37;;;37.20;;
15958;SDS011;8078;47.822;9.402;2023-02-10T05:23:28;77.73;;;36.73;;
15958;SDS011;8078;47.822;9.402;2023-02-10T05:25:53;83.63;;;36.57;;
15958;SDS011;8078;47.822;9.402;2023-02-10T05:28:19;71.90;;;34.93;;
15958;SDS011;8078;47.822;9.402;2023-02-10T05:30:46;68.03;;;33.53;;
15958;SDS011;8078;47.822;9.402;2023-02-10T05:33:12;69.33;;;33.47;;
15958;SDS011;8078;47.822;9.402;2023-02-10T05:35:38;70.67;;;31.70;;
15958;SDS011;8078;47.822;9.402;2023-02-10T05:38:03;64.40;;;29.73;;
15958;SDS011;8078;47.822;9.402;2023-02-10T05:40:29;60.97;;;28.57;;
15958;SDS011;8078;47.822;9.402;2023-02-10T05:42:55;62.07;;;29.93;;
15958;SDS011;8078;47.822;9.402;2023-02-10T05:45:20;62.87;;;30.00;;
15958;SDS011;8078;47.822;9.402;2023-02-10T05:47:46;63.57;;;29.80;;
15958;SDS011;8078;47.822;9.402;2023-02-10T05:50:13;62.03;;;29.83;;
15958;SDS011;8078;47.822;9.402;2023-02-10T05:52:38;58.30;;;30.03;;
15958;SDS011;8078;47.822;9.402;2023-02-10T05:55:04;63.40;;;29.60;;
15958;SDS011;8078;47.822;9.402;2023-02-10T05:57:30;63.33;;;29.83;;
15958;SDS011;8078;47.822;9.402;2023-02-10T05:59:56;60.20;;;28.90;;
15958;SDS011;8078;47.822;9.402;2023-02-10T06:02:21;64.57;;;30.77;;
15958;SDS011;8078;47.822;9.402;2023-02-10T06:04:47;57.83;;;29.40;;
15958;SDS011;8078;47.822;9.402;2023-02-10T06:07:14;58.13;;;30.37;;
15958;SDS011;8078;47.822;9.402;2023-02-10T06:09:41;59.50;;;29.97;;
15958;SDS011;8078;47.822;9.402;2023-02-10T06:12:07;63.40;;;30.07;;
15958;SDS011;8078;47.822;9.402;2023-02-10T06:14:33;66.87;;;33.70;;
15958;SDS011;8078;47.822;9.402;2023-02-10T06:16:58;74.20;;;33.33;;
15958;SDS011;8078;47.822;9.402;2023-02-10T06:19:24;74.80;;;35.07;;
15958;SDS011;8078;47.822;9.402;2023-02-10T06:21:50;76.13;;;36.63;;
15958;SDS011;8078;47.822;9.402;2023-02-10T06:24:15;79.53;;;36.33;;
15958;SDS011;8078;47.822;9.402;2023-02-10T06:26:41;71.57;;;34.47;;
15958;SDS011;8078;47.822;9.402;2023-02-10T06:29:06;67.27;;;34.40;;
15958;SDS011;8078;47.822;9.402;2023-02-10T06:31:32;74.60;;;33.80;;
15958;SDS011;8078;47.822;9.402;2023-02-10T06:33:58;69.37;;;34.43;;
15958;SDS011;8078;47.822;9.402;2023-02-10T06:36:23;68.77;;;31.70;;
15958;SDS011;8078;47.822;9.402;2023-02-10T06:38:49;61.50;;;30.37;;
15958;SDS011;8078;47.822;9.402;2023-02-10T06:41:14;64.57;;;29.40;;
15958;SDS011;8078;47.822;9.402;2023-02-10T06:43:40;65.50;;;31.33;;
15958;SDS011;8078;47.822;9.402;2023-02-10T06:46:06;56.60;;;28.17;;
15958;SDS011;8078;47.822;9.402;2023-02-10T06:48:32;62.33;;;29.63;;
15958;SDS011;8078;47.822;9.402;2023-02-10T06:50:58;61.60;;;30.20;;
15958;SDS011;8078;47.822;9.402;2023-02-10T06:53:24;61.17;;;28.97;;
15958;SDS011;8078;47.822;9.402;2023-02-10T06:55:49;60.70;;;27.57;;
15958;SDS011;8078;47.822;9.402;2023-02-10T06:58:15;51.70;;;25.87;;
15958;SDS011;8078;47.822;9.402;2023-02-10T07:00:41;55.43;;;26.93;;
15958;SDS011;8078;47.822;9.402;2023-02-10T07:03:06;55.47;;;26.93;;
15958;SDS011;8078;47.822;9.402;2023-02-10T07:05:32;48.90;;;25.17;;
15958;SDS011;8078;47.822;9.402;2023-02-10T07:08:00;47.67;;;24.30;;
15958;SDS011;8078;47.822;9.402;2023-02-10T07:10:27;52.87;;;26.37;;
15958;SDS011;8078;47.822;9.402;2023-02-10T07:12:52;51.27;;;24.80;;
15958;SDS011;8078;47.822;9.402;2023-02-10T07:15:18;45.63;;;23.83;;
15958;SDS011;8078;47.822;9.402;2023-02-10T07:17:47;49.10;;;22.93;;
15958;SDS011;8078;47.822;9.402;2023-02-10T07:20:13;43.47;;;22.93;;
15958;SDS011;8078;47.822;9.402;2023-02-10T07:22:39;44.17;;;23.37;;
15958;SDS011;8078;47.822;9.402;2023-02-10T07:25:05;42.37;;;22.77;;
15958;SDS011;8078;47.822;9.402;2023-02-10T07:27:30;48.57;;;23.17;;
15958;SDS011;8078;47.822;9.402;2023-02-10T07:29:56;45.10;;;23.53;;
15958;SDS011;8078;47.822;9.402;2023-02-10T07:32:22;42.37;;;20.70;;
15958;SDS011;8078;47.822;9.402;2023-02-10T07:34:47;43.97;;;22.27;;
15958;SDS011;8078;47.822;9.402;2023-02-10T07:37:14;40.07;;;21.63;;
15958;SDS011;8078;47.822;9.402;2023-02-10T07:39:40;42.37;;;21.63;;
15958;SDS011;8078;47.822;9.402;2023-02-10T07:42:06;42.87;;;20.53;;
15958;SDS011;8078;47.822;9.402;2023-02-10T07:44:31;39.43;;;19.97;;
15958;SDS011;8078;47.822;9.402;2023-02-10T07:46:57;35.20;;;20.20;;
15958;SDS011;8078;47.822;9.402;2023-02-10T07:49:22;31.90;;;19.03;;
15958;SDS011;8078;47.822;9.402;2023-02-10T07:51:49;38.47;;;19.80;;
15958;SDS011;8078;47.822;9.402;2023-02-10T07:54:15;39.73;;;20.87;;
15958;SDS011;8078;47.822;9.402;2023-02-10T07:56:40;41.27;;;20.90;;
15958;SDS011;8078;47.822;9.402;2023-02-10T07:59:06;33.07;;;18.87;;
15958;SDS011;8078;47.822;9.402;2023-02-10T08:01:31;39.13;;;21.13;;
15958;SDS011;8078;47.822;9.402;2023-02-10T08:03:58;39.07;;;21.03;;
15958;SDS011;8078;47.822;9.402;2023-02-10T08:06:24;41.40;;;19.87;;
15958;SDS011;8078;47.822;9.402;2023-02-10T08:08:50;39.67;;;20.13;;
15958;SDS011;8078;47.822;9.402;2023-02-10T08:11:16;38.00;;;18.83;;
15958;SDS011;8078;47.822;9.402;2023-02-10T08:13:42;37.50;;;20.87;;
15958;SDS011;8078;47.822;9.402;2023-02-10T08:16:08;40.23;;;21.77;;
15958;SDS011;8078;47.822;9.402;2023-02-10T08:18:36;38.67;;;21.53;;
15958;SDS011;8078;47.822;9.402;2023-02-10T08:21:02;43.40;;;21.17;;
15958;SDS011;8078;47.822;9.402;2023-02-10T08:23:29;43.10;;;21.37;;
15958;SDS011;8078;47.822;9.402;2023-02-10T08:25:55;42.27;;;22.27;;
15958;SDS011;8078;47.822;9.402;2023-02-10T08:28:20;41.93;;;21.17;;
15958;SDS011;8078;47.822;9.402;2023-02-10T08:30:46;42.83;;;22.97;;
15958;SDS011;8078;47.822;9.402;2023-02-10T08:33:12;44.80;;;22.37;;
15958;SDS011;8078;47.822;9.402;2023-02-10T08:35:38;41.60;;;21.67;;
15958;SDS011;8078;47.822;9.402;2023-02-10T08:38:04;43.37;;;22.03;;
15958;SDS011;8078;47.822;9.402;2023-02-10T08:40:30;39.13;;;22.03;;
15958;SDS011;8078;47.822;9.402;2023-02-10T08:42:57;37.47;;;21.50;;
15958;SDS011;8078;47.822;9.402;2023-02-10T08:45:22;40.20;;;22.77;;
15958;SDS011;8078;47.822;9.402;2023-02-10T08:47:48;41.70;;;22.20;;
15958;SDS011;8078;47.822;9.402;2023-02-10T08:50:14;39.07;;;22.13;;
15958;SDS011;8078;47.822;9.402;2023-02-10T08:52:39;40.63;;;21.60;;
15958;SDS011;8078;47.822;9.402;2023-02-10T08:55:05;40.83;;;22.00;;
15958;SDS011;8078;47.822;9.402;2023-02-10T08:57:32;42.60;;;22.97;;
15958;SDS011;8078;47.822;9.402;2023-02-10T08:59:58;40.07;;;20.97;;
15958;SDS011;8078;47.822;9.402;2023-02-10T09:02:24;45.73;;;23.43;;
15958;SDS011;8078;47.822;9.402;2023-02-10T09:04:49;42.93;;;21.90;;
15958;SDS011;8078;47.822;9.402;2023-02-10T09:07:15;43.30;;;23.17;;
15958;SDS011;8078;47.822;9.402;2023-02-10T09:09:41;41.53;;;23.80;;
15958;SDS011;8078;47.822;9.402;2023-02-10T09:12:08;40.93;;;23.13;;
15958;SDS011;8078;47.822;9.402;2023-02-10T09:14:36;44.70;;;22.80;;
15958;SDS011;8078;47.822;9.402;2023-02-10T09:17:03;38.87;;;21.40;;
15958;SDS011;8078;47.822;9.402;2023-02-10T09:19:28;43.07;;;23.27;;
15958;SDS011;8078;47.822;9.402;2023-02-10T09:21:54;40.07;;;23.33;;
15958;SDS011;8078;47.822;9.402;2023-02-10T09:24:21;41.27;;;23.13;;
15958;SDS011;8078;47.822;9.402;2023-02-10T09:26:47;41.47;;;23.23;;
15958;SDS011;8078;47.822;9.402;2023-02-10T09:29:12;44.50;;;22.80;;
15958;SDS011;8078;47.822;9.402;2023-02-10T09:31:38;40.13;;;23.80;;
15958;SDS011;8078;47.822;9.402;2023-02-10T09:34:04;41.10;;;22.47;;
15958;SDS011;8078;47.822;9.402;2023-02-10T09:36:30;38.63;;;21.97;;
15958;SDS011;8078;47.822;9.402;2023-02-10T09:38:56;37.60;;;21.67;;
15958;SDS011;8078;47.822;9.402;2023-02-10T09:52:36;34.10;;;19.20;;
15958;SDS011;8078;47.822;9.402;2023-02-10T09:55:32;33.03;;;18.27;;
15958;SDS011;8078;47.822;9.402;2023-02-10T10:00:51;33.70;;;18.23;;
15958;SDS011;8078;47.822;9.402;2023-02-10T10:03:27;32.60;;;18.33;;
15958;SDS011;8078;47.822;9.402;2023-02-10T10:11:26;31.80;;;18.50;;
15958;SDS011;8078;47.822;9.402;2023-02-10T10:14:04;30.53;;;17.67;;
15958;SDS011;8078;47.822;9.402;2023-02-10T10:16:43;30.43;;;17.40;;
15958;SDS011;8078;47.822;9.402;2023-02-10T10:22:12;34.40;;;20.80;;
15958;SDS011;8078;47.822;9.402;2023-02-10T10:24:49;34.20;;;20.03;;
15958;SDS011;8078;47.822;9.402;2023-02-10T10:30:14;34.43;;;17.73;;
15958;SDS011;8078;47.822;9.402;2023-02-10T10:35:24;27.37;;;17.90;;
15958;SDS011;8078;47.822;9.402;2023-02-10T10:37:54;31.57;;;18.37;;
15958;SDS011;8078;47.822;9.402;2023-02-10T10:40:30;31.47;;;18.73;;
15958;SDS011;8078;47.822;9.402;2023-02-10T10:42:58;32.03;;;18.13;;
15958;SDS011;8078;47.822;9.402;2023-02-10T10:45:29;29.77;;;17.60;;
15958;SDS011;8078;47.822;9.402;2023-02-10T10:50:33;29.27;;;18.33;;
15958;SDS011;8078;47.822;9.402;2023-02-10T10:53:00;30.60;;;18.93;;
15958;SDS011;8078;47.822;9.402;2023-02-10T10:55:40;31.63;;;18.63;;
15958;SDS011;8078;47.822;9.402;2023-02-10T11:00:56;34.60;;;19.50;;
15958;SDS011;8078;47.822;9.402;2023-02-10T11:03:26;30.63;;;19.23;;
15958;SDS011;8078;47.822;9.402;2023-02-10T11:06:06;37.53;;;20.33;;
15958;SDS011;8078;47.822;9.402;2023-02-10T11:08:42;34.27;;;19.97;;
15958;SDS011;8078;47.822;9.402;2023-02-10T11:11:18;28.63;;;18.77;;
15958;SDS011;8078;47.822;9.402;2023-02-10T11:13:50;35.53;;;22.17;;
15958;SDS011;8078;47.822;9.402;2023-02-10T11:16:19;32.13;;;19.90;;
15958;SDS011;8078;47.822;9.402;2023-02-10T11:18:58;31.90;;;19.13;;
15958;SDS011;8078;47.822;9.402;2023-02-10T11:21:38;34.23;;;20.00;;
15958;SDS011;8078;47.822;9.402;2023-02-10T11:24:47;29.03;;;17.70;;
15958;SDS011;8078;47.822;9.402;2023-02-10T11:27:02;31.80;;;18.80;;
15958;SDS011;8078;47.822;9.402;2023-02-10T11:29:33;30.27;;;17.63;;
15958;SDS011;8078;47.822;9.402;2023-02-10T11:32:04;30.40;;;18.87;;
15958;SDS011;8078;47.822;9.402;2023-02-10T11:34:31;27.73;;;17.70;;
15958;SDS011;8078;47.822;9.402;2023-02-10T11:37:31;28.67;;;18.37;;
15958;SDS011;8078;47.822;9.402;2023-02-10T11:40:00;30.00;;;18.77;;
15958;SDS011;8078;47.822;9.402;2023-02-10T11:42:31;31.97;;;19.80;;
15958;SDS011;8078;47.822;9.402;2023-02-10T11:45:00;32.27;;;20.50;;
15958;SDS011;8078;47.822;9.402;2023-02-10T11:47:29;32.47;;;20.07;;
15958;SDS011;8078;47.822;9.402;2023-02-10T11:49:56;36.10;;;20.40;;
15958;SDS011;8078;47.822;9.402;2023-02-10T11:52:23;30.23;;;18.73;;
15958;SDS011;8078;47.822;9.402;2023-02-10T11:54:51;29.40;;;19.13;;
15958;SDS011;8078;47.822;9.402;2023-02-10T11:57:29;32.63;;;19.30;;
15958;SDS011;8078;47.822;9.402;2023-02-10T12:00:33;34.30;;;20.73;;
15958;SDS011;8078;47.822;9.402;2023-02-10T12:06:18;33.43;;;20.43;;
15958;SDS011;8078;47.822;9.402;2023-02-10T12:11:33;29.77;;;20.17;;
15958;SDS011;8078;47.822;9.402;2023-02-10T12:14:20;29.83;;;19.53;;
15958;SDS011;8078;47.822;9.402;2023-02-10T12:19:29;33.33;;;20.90;;
15958;SDS011;8078;47.822;9.402;2023-02-10T12:22:02;29.97;;;18.97;;
15958;SDS011;8078;47.822;9.402;2023-02-10T12:30:09;30.77;;;19.67;;
15958;SDS011;8078;47.822;9.402;2023-02-10T12:33:02;37.93;;;21.00;;
15958;SDS011;8078;47.822;9.402;2023-02-10T12:49:35;30.60;;;18.23;;
15958;SDS011;8078;47.822;9.402;2023-02-10T12:52:20;30.37;;;19.17;;
15958;SDS011;8078;47.822;9.402;2023-02-10T12:57:28;31.43;;;20.03;;
15958;SDS011;8078;47.822;9.402;2023-02-10T13:00:12;29.63;;;18.37;;
15958;SDS011;8078;47.822;9.402;2023-02-10T13:02:59;30.87;;;18.70;;
15958;SDS011;8078;47.822;9.402;2023-02-10T13:05:38;31.23;;;17.83;;
15958;SDS011;8078;47.822;9.402;2023-02-10T13:08:17;29.30;;;19.07;;
15958;SDS011;8078;47.822;9.402;2023-02-10T13:10:50;33.23;;;18.53;;
15958;SDS011;8078;47.822;9.402;2023-02-10T13:13:30;29.13;;;19.03;;
15958;SDS011;8078;47.822;9.402;2023-02-10T13:16:31;30.13;;;18.50;;
15958;SDS011;8078;47.822;9.402;2023-02-10T13:19:02;32.07;;;20.00;;
15958;SDS011;8078;47.822;9.402;2023-02-10T13:24:20;31.00;;;18.97;;
15958;SDS011;8078;47.822;9.402;2023-02-10T13:36:22;32.17;;;19.93;;
15958;SDS011;8078;47.822;9.402;2023-02-10T13:38:59;30.07;;;19.60;;
15958;SDS011;8078;47.822;9.402;2023-02-10T13:41:31;30.73;;;20.10;;
15958;SDS011;8078;47.822;9.402;2023-02-10T13:46:56;27.30;;;18.00;;
15958;SDS011;8078;47.822;9.402;2023-02-10T13:49:49;28.67;;;18.63;;
15958;SDS011;8078;47.822;9.402;2023-02-10T13:52:20;27.10;;;17.95;;
15958;SDS011;8078;47.822;9.402;2023-02-10T13:54:58;28.50;;;19.38;;
15958;SDS011;8078;47.822;9.402;2023-02-10T13:57:31;26.33;;;18.17;;
15958;SDS011;8078;47.822;9.402;2023-02-10T14:02:43;35.75;;;22.52;;
15958;SDS011;8078;47.822;9.402;2023-02-10T14:05:27;53.47;;;30.35;;
15958;SDS011;8078;47.822;9.402;2023-02-10T14:07:58;52.47;;;27.87;;
15958;SDS011;8078;47.822;9.402;2023-02-10T14:10:26;40.43;;;25.60;;
15958;SDS011;8078;47.822;9.402;2023-02-10T14:15:55;40.77;;;24.70;;
15958;SDS011;8078;47.822;9.402;2023-02-10T14:18:30;50.40;;;30.67;;
15958;SDS011;8078;47.822;9.402;2023-02-10T14:21:08;49.97;;;29.77;;
15958;SDS011;8078;47.822;9.402;2023-02-10T14:23:37;50.50;;;30.50;;
15958;SDS011;8078;47.822;9.402;2023-02-10T14:26:16;51.83;;;31.17;;
15958;SDS011;8078;47.822;9.402;2023-02-10T14:28:56;39.87;;;25.37;;
15958;SDS011;8078;47.822;9.402;2023-02-10T14:31:27;39.13;;;24.37;;
15958;SDS011;8078;47.822;9.402;2023-02-10T14:33:57;37.03;;;22.80;;
15958;SDS011;8078;47.822;9.402;2023-02-10T14:36:24;72.97;;;38.07;;
15958;SDS011;8078;47.822;9.402;2023-02-10T14:38:55;71.03;;;39.38;;
15958;SDS011;8078;47.822;9.402;2023-02-10T14:41:25;58.60;;;33.90;;
15958;SDS011;8078;47.822;9.402;2023-02-10T14:43:53;49.72;;;28.40;;
15958;SDS011;8078;47.822;9.402;2023-02-10T14:48:50;39.22;;;24.20;;
15958;SDS011;8078;47.822;9.402;2023-02-10T14:51:23;34.08;;;22.13;;
15958;SDS011;8078;47.822;9.402;2023-02-10T14:53:50;30.65;;;19.83;;
15958;SDS011;8078;47.822;9.402;2023-02-10T14:56:26;40.03;;;23.83;;
15958;SDS011;8078;47.822;9.402;2023-02-10T14:58:52;29.88;;;20.67;;
15958;SDS011;8078;47.822;9.402;2023-02-10T15:01:25;27.63;;;20.65;;
15958;SDS011;8078;47.822;9.402;2023-02-10T15:03:51;27.50;;;19.33;;
15958;SDS011;8078;47.822;9.402;2023-02-10T15:06:21;44.28;;;29.23;;
15958;SDS011;8078;47.822;9.402;2023-02-10T15:08:50;42.00;;;25.92;;
15958;SDS011;8078;47.822;9.402;2023-02-10T15:11:52;38.17;;;24.08;;
15958;SDS011;8078;47.822;9.402;2023-02-10T15:14:29;26.45;;;17.80;;
15958;SDS011;8078;47.822;9.402;2023-02-10T15:16:57;25.03;;;17.53;;
15958;SDS011;8078;47.822;9.402;2023-02-10T15:19:24;28.40;;;18.90;;
15958;SDS011;8078;47.822;9.402;2023-02-10T15:21:50;29.55;;;20.15;;
15958;SDS011;8078;47.822;9.402;2023-02-10T15:24:21;39.03;;;25.00;;
15958;SDS011;8078;47.822;9.402;2023-02-10T15:26:48;34.77;;;22.87;;
15958;SDS011;8078;47.822;9.402;2023-02-10T15:29:14;35.73;;;21.17;;
15958;SDS011;8078;47.822;9.402;2023-02-10T15:31:41;29.57;;;19.33;;
15958;SDS011;8078;47.822;9.402;2023-02-10T15:34:27;29.23;;;18.13;;
15958;SDS011;8078;47.822;9.402;2023-02-10T15:37:03;29.23;;;19.17;;
15958;SDS011;8078;47.822;9.402;2023-02-10T15:41:57;34.70;;;18.10;;
15958;SDS011;8078;47.822;9.402;2023-02-10T15:49:45;29.03;;;18.17;;
15958;SDS011;8078;47.822;9.402;2023-02-10T15:52:13;30.73;;;18.03;;
15958;SDS011;8078;47.822;9.402;2023-02-10T15:54:40;38.30;;;23.33;;
15958;SDS011;8078;47.822;9.402;2023-02-10T15:57:09;52.90;;;29.40;;
15958;SDS011;8078;47.822;9.402;2023-02-10T15:59:36;36.43;;;21.57;;
15958;SDS011;8078;47.822;9.402;2023-02-10T16:02:06;34.70;;;20.93;;
15958;SDS011;8078;47.822;9.402;2023-02-10T16:04:35;32.97;;;19.93;;
15958;SDS011;8078;47.822;9.402;2023-02-10T16:07:01;33.30;;;21.00;;
15958;SDS011;8078;47.822;9.402;2023-02-10T16:09:28;35.17;;;20.83;;
15958;SDS011;8078;47.822;9.402;2023-02-10T16:11:55;33.27;;;19.73;;
15958;SDS011;8078;47.822;9.402;2023-02-10T16:14:21;33.97;;;20.73;;
15958;SDS011;8078;47.822;9.402;2023-02-10T16:16:47;39.77;;;20.90;;
15958;SDS011;8078;47.822;9.402;2023-02-10T16:19:17;36.50;;;21.43;;
15958;SDS011;8078;47.822;9.402;2023-02-10T16:21:44;37.63;;;21.33;;
15958;SDS011;8078;47.822;9.402;2023-02-10T16:24:14;35.40;;;19.97;;
15958;SDS011;8078;47.822;9.402;2023-02-10T16:26:42;35.90;;;20.33;;
15958;SDS011;8078;47.822;9.402;2023-02-10T16:29:15;36.30;;;20.83;;
15958;SDS011;8078;47.822;9.402;2023-02-10T16:31:43;34.37;;;19.77;;
15958;SDS011;8078;47.822;9.402;2023-02-10T16:34:09;35.10;;;19.97;;
15958;SDS011;8078;47.822;9.402;2023-02-10T16:36:35;37.07;;;20.70;;
15958;SDS011;8078;47.822;9.402;2023-02-10T16:39:02;34.27;;;20.40;;